sensor_id;sensor_type;location;lat;lon;timestamp;P1;durP1;ratioP1;P2;durP2;ratioP2
45684;SDS011;46836;48.388;16.210;2023-02-28T00:01:31;12.60;;;5.70;;
45684;SDS011;46836;48.388;16.210;2023-02-28T00:03:59;10.75;;;6.32;;
45684;SDS011;46836;48.388;16.210;2023-02-28T00:06:26;8.30;;;5.30;;
45684;SDS011;46836;48.388;16.210;2023-02-28T00:08:53;13.70;;;5.80;;
45684;SDS011;46836;48.388;16.210;2023-02-28T00:11:20;10.63;;;6.18;;
45684;SDS011;46836;48.388;16.210;2023-02-28T00:13:48;11.07;;;5.70;;
45684;SDS011;46836;48.388;16.210;2023-02-28T00:16:19;10.15;;;6.10;;
45684;SDS011;46836;48.388;16.210;2023-02-28T00:18:48;8.35;;;5.20;;
45684;SDS011;46836;48.388;16.210;2023-02-28T00:21:16;11.90;;;7.78;;
45684;SDS011;46836;48.388;16.210;2023-02-28T00:23:45;10.77;;;6.28;;
45684;SDS011;46836;48.388;16.210;2023-02-28T00:26:12;9.18;;;6.13;;
45684;SDS011;46836;48.388;16.210;2023-02-28T00:28:40;13.82;;;6.95;;
45684;SDS011;46836;48.388;16.210;2023-02-28T00:31:07;12.82;;;6.28;;
45684;SDS011;46836;48.388;16.210;2023-02-28T00:33:34;10.82;;;5.97;;
45684;SDS011;46836;48.388;16.210;2023-02-28T00:36:03;12.48;;;6.78;;
45684;SDS011;46836;48.388;16.210;2023-02-28T00:38:32;8.55;;;6.30;;
45684;SDS011;46836;48.388;16.210;2023-02-28T00:40:59;8.27;;;6.07;;
45684;SDS011;46836;48.388;16.210;2023-02-28T00:43:32;14.30;;;7.40;;
45684;SDS011;46836;48.388;16.210;2023-02-28T00:46:00;12.23;;;6.95;;
45684;SDS011;46836;48.388;16.210;2023-02-28T00:48:28;11.82;;;5.80;;
45684;SDS011;46836;48.388;16.210;2023-02-28T00:50:55;11.65;;;6.70;;
45684;SDS011;46836;48.388;16.210;2023-02-28T00:53:22;13.88;;;6.97;;
45684;SDS011;46836;48.388;16.210;2023-02-28T00:55:50;11.32;;;6.03;;
45684;SDS011;46836;48.388;16.210;2023-02-28T00:58:17;10.77;;;6.28;;
45684;SDS011;46836;48.388;16.210;2023-02-28T01:00:44;9.38;;;6.68;;
45684;SDS011;46836;48.388;16.210;2023-02-28T01:03:16;9.27;;;6.07;;
45684;SDS011;46836;48.388;16.210;2023-02-28T01:05:44;13.13;;;6.90;;
45684;SDS011;46836;48.388;16.210;2023-02-28T01:08:12;10.88;;;6.90;;
45684;SDS011;46836;48.388;16.210;2023-02-28T01:10:40;12.13;;;7.15;;
45684;SDS011;46836;48.388;16.210;2023-02-28T01:13:08;13.25;;;5.85;;
45684;SDS011;46836;48.388;16.210;2023-02-28T01:15:35;13.27;;;6.78;;
45684;SDS011;46836;48.388;16.210;2023-02-28T01:18:02;12.77;;;7.13;;
45684;SDS011;46836;48.388;16.210;2023-02-28T01:20:29;10.50;;;6.13;;
45684;SDS011;46836;48.388;16.210;2023-02-28T01:22:57;12.55;;;7.53;;
45684;SDS011;46836;48.388;16.210;2023-02-28T01:25:24;11.52;;;7.05;;
45684;SDS011;46836;48.388;16.210;2023-02-28T01:27:51;12.52;;;6.65;;
45684;SDS011;46836;48.388;16.210;2023-02-28T01:30:18;10.20;;;5.95;;
45684;SDS011;46836;48.388;16.210;2023-02-28T01:32:45;13.05;;;7.28;;
45684;SDS011;46836;48.388;16.210;2023-02-28T01:35:12;11.95;;;6.53;;
45684;SDS011;46836;48.388;16.210;2023-02-28T01:37:39;13.98;;;7.32;;
45684;SDS011;46836;48.388;16.210;2023-02-28T01:40:07;11.57;;;6.18;;
45684;SDS011;46836;48.388;16.210;2023-02-28T01:42:34;9.38;;;6.00;;
45684;SDS011;46836;48.388;16.210;2023-02-28T01:47:51;11.75;;;6.75;;
45684;SDS011;46836;48.388;16.210;2023-02-28T01:50:23;10.73;;;6.32;;
45684;SDS011;46836;48.388;16.210;2023-02-28T01:52:54;11.93;;;6.90;;
45684;SDS011;46836;48.388;16.210;2023-02-28T01:55:23;11.32;;;6.78;;
45684;SDS011;46836;48.388;16.210;2023-02-28T01:57:56;10.32;;;6.70;;
45684;SDS011;46836;48.388;16.210;2023-02-28T02:00:26;12.82;;;6.90;;
45684;SDS011;46836;48.388;16.210;2023-02-28T02:02:56;14.15;;;6.85;;
45684;SDS011;46836;48.388;16.210;2023-02-28T02:05:27;12.63;;;7.53;;
45684;SDS011;46836;48.388;16.210;2023-02-28T02:08:08;9.50;;;6.38;;
45684;SDS011;46836;48.388;16.210;2023-02-28T02:10:41;15.05;;;6.50;;
45684;SDS011;46836;48.388;16.210;2023-02-28T02:32:13;8.93;;;6.47;;
45684;SDS011;46836;48.388;16.210;2023-02-28T02:34:52;12.77;;;7.07;;
45684;SDS011;46836;48.388;16.210;2023-02-28T02:37:31;10.45;;;6.50;;
45684;SDS011;46836;48.388;16.210;2023-02-28T02:40:18;9.52;;;6.20;;
45684;SDS011;46836;48.388;16.210;2023-02-28T02:42:50;12.27;;;6.90;;
45684;SDS011;46836;48.388;16.210;2023-02-28T02:45:25;13.55;;;6.93;;
45684;SDS011;46836;48.388;16.210;2023-02-28T02:48:19;12.00;;;5.72;;
45684;SDS011;46836;48.388;16.210;2023-02-28T02:50:53;12.25;;;7.20;;
45684;SDS011;46836;48.388;16.210;2023-02-28T02:53:33;13.40;;;6.47;;
45684;SDS011;46836;48.388;16.210;2023-02-28T02:56:03;11.60;;;6.05;;
45684;SDS011;46836;48.388;16.210;2023-02-28T02:58:34;8.82;;;5.97;;
45684;SDS011;46836;48.388;16.210;2023-02-28T03:01:10;13.65;;;7.10;;
45684;SDS011;46836;48.388;16.210;2023-02-28T03:03:40;13.32;;;7.47;;
45684;SDS011;46836;48.388;16.210;2023-02-28T03:06:08;14.40;;;7.28;;
45684;SDS011;46836;48.388;16.210;2023-02-28T03:08:37;16.70;;;7.90;;
45684;SDS011;46836;48.388;16.210;2023-02-28T03:11:05;15.55;;;8.70;;
45684;SDS011;46836;48.388;16.210;2023-02-28T03:24:39;10.70;;;6.75;;
45684;SDS011;46836;48.388;16.210;2023-02-28T03:33:09;11.02;;;6.90;;
45684;SDS011;46836;48.388;16.210;2023-02-28T03:35:53;12.02;;;6.93;;
45684;SDS011;46836;48.388;16.210;2023-02-28T03:38:46;11.60;;;6.50;;
45684;SDS011;46836;48.388;16.210;2023-02-28T03:42:14;10.60;;;6.72;;
45684;SDS011;46836;48.388;16.210;2023-02-28T03:44:58;15.00;;;6.53;;
45684;SDS011;46836;48.388;16.210;2023-02-28T03:47:56;12.32;;;7.30;;
45684;SDS011;46836;48.388;16.210;2023-02-28T03:50:38;13.32;;;6.75;;
45684;SDS011;46836;48.388;16.210;2023-02-28T03:53:11;10.68;;;7.15;;
45684;SDS011;46836;48.388;16.210;2023-02-28T03:55:47;12.95;;;6.30;;
45684;SDS011;46836;48.388;16.210;2023-02-28T04:00:44;12.70;;;7.38;;
45684;SDS011;46836;48.388;16.210;2023-02-28T04:03:15;9.23;;;6.63;;
45684;SDS011;46836;48.388;16.210;2023-02-28T04:05:47;13.90;;;7.00;;
45684;SDS011;46836;48.388;16.210;2023-02-28T04:08:19;12.18;;;6.60;;
45684;SDS011;46836;48.388;16.210;2023-02-28T04:10:48;8.93;;;6.35;;
45684;SDS011;46836;48.388;16.210;2023-02-28T04:13:27;12.35;;;7.05;;
45684;SDS011;46836;48.388;16.210;2023-02-28T04:15:54;12.15;;;6.68;;
45684;SDS011;46836;48.388;16.210;2023-02-28T04:18:21;12.45;;;6.80;;
45684;SDS011;46836;48.388;16.210;2023-02-28T04:20:49;10.63;;;6.53;;
45684;SDS011;46836;48.388;16.210;2023-02-28T04:23:16;12.85;;;7.53;;
45684;SDS011;46836;48.388;16.210;2023-02-28T04:25:43;11.57;;;6.65;;
45684;SDS011;46836;48.388;16.210;2023-02-28T04:28:10;8.95;;;6.70;;
45684;SDS011;46836;48.388;16.210;2023-02-28T04:30:37;9.45;;;6.30;;
45684;SDS011;46836;48.388;16.210;2023-02-28T04:33:05;14.45;;;6.75;;
45684;SDS011;46836;48.388;16.210;2023-02-28T04:35:32;12.65;;;7.85;;
45684;SDS011;46836;48.388;16.210;2023-02-28T04:37:59;12.57;;;7.18;;
45684;SDS011;46836;48.388;16.210;2023-02-28T04:40:26;13.93;;;6.97;;
45684;SDS011;46836;48.388;16.210;2023-02-28T04:42:53;13.75;;;7.80;;
45684;SDS011;46836;48.388;16.210;2023-02-28T04:45:21;10.60;;;7.03;;
45684;SDS011;46836;48.388;16.210;2023-02-28T04:47:48;11.32;;;7.22;;
45684;SDS011;46836;48.388;16.210;2023-02-28T04:50:15;19.40;;;7.70;;
45684;SDS011;46836;48.388;16.210;2023-02-28T04:52:42;9.02;;;6.13;;
45684;SDS011;46836;48.388;16.210;2023-02-28T04:55:09;13.85;;;7.70;;
45684;SDS011;46836;48.388;16.210;2023-02-28T04:57:36;14.45;;;8.30;;
45684;SDS011;46836;48.388;16.210;2023-02-28T05:00:03;14.68;;;7.65;;
45684;SDS011;46836;48.388;16.210;2023-02-28T05:02:34;11.90;;;8.18;;
45684;SDS011;46836;48.388;16.210;2023-02-28T05:05:01;15.43;;;7.88;;
45684;SDS011;46836;48.388;16.210;2023-02-28T05:07:28;16.08;;;7.72;;
45684;SDS011;46836;48.388;16.210;2023-02-28T05:09:56;13.50;;;8.30;;
45684;SDS011;46836;48.388;16.210;2023-02-28T05:12:23;15.20;;;8.00;;
45684;SDS011;46836;48.388;16.210;2023-02-28T05:14:50;13.00;;;8.15;;
45684;SDS011;46836;48.388;16.210;2023-02-28T05:17:17;13.52;;;7.75;;
45684;SDS011;46836;48.388;16.210;2023-02-28T05:19:44;15.70;;;7.63;;
45684;SDS011;46836;48.388;16.210;2023-02-28T05:22:14;18.10;;;9.50;;
45684;SDS011;46836;48.388;16.210;2023-02-28T05:24:45;11.65;;;7.57;;
45684;SDS011;46836;48.388;16.210;2023-02-28T05:27:12;20.15;;;8.73;;
45684;SDS011;46836;48.388;16.210;2023-02-28T05:29:39;12.77;;;7.55;;
45684;SDS011;46836;48.388;16.210;2023-02-28T05:32:10;11.57;;;7.00;;
45684;SDS011;46836;48.388;16.210;2023-02-28T05:34:38;14.75;;;7.90;;
45684;SDS011;46836;48.388;16.210;2023-02-28T05:37:06;17.45;;;7.10;;
45684;SDS011;46836;48.388;16.210;2023-02-28T05:39:39;14.43;;;8.48;;
45684;SDS011;46836;48.388;16.210;2023-02-28T05:42:06;13.90;;;7.68;;
45684;SDS011;46836;48.388;16.210;2023-02-28T05:44:33;14.27;;;9.38;;
45684;SDS011;46836;48.388;16.210;2023-02-28T05:47:00;21.02;;;9.43;;
45684;SDS011;46836;48.388;16.210;2023-02-28T05:49:27;16.20;;;9.00;;
45684;SDS011;46836;48.388;16.210;2023-02-28T05:51:54;18.45;;;9.63;;
45684;SDS011;46836;48.388;16.210;2023-02-28T05:54:21;17.80;;;9.30;;
45684;SDS011;46836;48.388;16.210;2023-02-28T05:56:48;11.75;;;7.63;;
45684;SDS011;46836;48.388;16.210;2023-02-28T05:59:16;16.27;;;9.25;;
45684;SDS011;46836;48.388;16.210;2023-02-28T06:01:43;14.30;;;8.32;;
45684;SDS011;46836;48.388;16.210;2023-02-28T06:04:16;14.80;;;8.35;;
45684;SDS011;46836;48.388;16.210;2023-02-28T06:06:57;11.52;;;7.20;;
45684;SDS011;46836;48.388;16.210;2023-02-28T06:09:24;19.73;;;8.13;;
45684;SDS011;46836;48.388;16.210;2023-02-28T06:11:51;12.52;;;6.53;;
45684;SDS011;46836;48.388;16.210;2023-02-28T06:14:19;14.80;;;7.88;;
45684;SDS011;46836;48.388;16.210;2023-02-28T06:16:46;12.73;;;7.15;;
45684;SDS011;46836;48.388;16.210;2023-02-28T06:19:13;9.70;;;6.18;;
45684;SDS011;46836;48.388;16.210;2023-02-28T06:21:41;14.40;;;7.35;;
45684;SDS011;46836;48.388;16.210;2023-02-28T06:24:09;14.82;;;7.20;;
45684;SDS011;46836;48.388;16.210;2023-02-28T06:26:36;14.02;;;6.50;;
45684;SDS011;46836;48.388;16.210;2023-02-28T06:29:03;13.77;;;6.78;;
45684;SDS011;46836;48.388;16.210;2023-02-28T06:31:30;10.77;;;7.28;;
45684;SDS011;46836;48.388;16.210;2023-02-28T06:33:58;17.25;;;7.20;;
45684;SDS011;46836;48.388;16.210;2023-02-28T06:36:25;15.93;;;7.57;;
45684;SDS011;46836;48.388;16.210;2023-02-28T06:38:52;14.55;;;8.07;;
45684;SDS011;46836;48.388;16.210;2023-02-28T06:41:22;19.40;;;8.30;;
45684;SDS011;46836;48.388;16.210;2023-02-28T06:43:54;12.45;;;7.35;;
45684;SDS011;46836;48.388;16.210;2023-02-28T06:46:21;16.40;;;8.20;;
45684;SDS011;46836;48.388;16.210;2023-02-28T06:48:49;12.05;;;7.53;;
45684;SDS011;46836;48.388;16.210;2023-02-28T06:51:17;14.75;;;7.05;;
45684;SDS011;46836;48.388;16.210;2023-02-28T06:53:50;16.02;;;7.32;;
45684;SDS011;46836;48.388;16.210;2023-02-28T06:56:18;15.13;;;7.63;;
45684;SDS011;46836;48.388;16.210;2023-02-28T06:58:47;15.35;;;8.25;;
45684;SDS011;46836;48.388;16.210;2023-02-28T07:01:15;11.05;;;7.18;;
45684;SDS011;46836;48.388;16.210;2023-02-28T07:03:43;13.63;;;7.72;;
45684;SDS011;46836;48.388;16.210;2023-02-28T07:06:10;14.38;;;8.68;;
45684;SDS011;46836;48.388;16.210;2023-02-28T07:08:37;10.43;;;6.97;;
45684;SDS011;46836;48.388;16.210;2023-02-28T07:11:06;15.27;;;8.32;;
45684;SDS011;46836;48.388;16.210;2023-02-28T07:13:33;14.55;;;7.72;;
45684;SDS011;46836;48.388;16.210;2023-02-28T07:16:04;11.82;;;7.28;;
45684;SDS011;46836;48.388;16.210;2023-02-28T07:18:34;15.70;;;8.88;;
45684;SDS011;46836;48.388;16.210;2023-02-28T07:21:02;28.17;;;8.90;;
45684;SDS011;46836;48.388;16.210;2023-02-28T07:23:30;16.58;;;9.27;;
45684;SDS011;46836;48.388;16.210;2023-02-28T07:25:57;14.20;;;7.60;;
45684;SDS011;46836;48.388;16.210;2023-02-28T07:28:24;13.00;;;7.93;;
45684;SDS011;46836;48.388;16.210;2023-02-28T07:30:52;17.00;;;9.10;;
45684;SDS011;46836;48.388;16.210;2023-02-28T07:33:19;23.15;;;9.02;;
45684;SDS011;46836;48.388;16.210;2023-02-28T07:35:46;18.48;;;9.30;;
45684;SDS011;46836;48.388;16.210;2023-02-28T07:38:13;12.13;;;7.28;;
45684;SDS011;46836;48.388;16.210;2023-02-28T07:40:40;15.60;;;7.47;;
45684;SDS011;46836;48.388;16.210;2023-02-28T07:43:07;14.15;;;8.63;;
45684;SDS011;46836;48.388;16.210;2023-02-28T07:45:34;19.00;;;8.85;;
45684;SDS011;46836;48.388;16.210;2023-02-28T07:48:01;14.65;;;8.25;;
45684;SDS011;46836;48.388;16.210;2023-02-28T07:50:28;17.23;;;9.48;;
45684;SDS011;46836;48.388;16.210;2023-02-28T07:53:00;11.10;;;7.78;;
45684;SDS011;46836;48.388;16.210;2023-02-28T07:55:27;13.10;;;8.25;;
45684;SDS011;46836;48.388;16.210;2023-02-28T07:57:54;15.00;;;8.15;;
45684;SDS011;46836;48.388;16.210;2023-02-28T08:00:22;15.57;;;9.25;;
45684;SDS011;46836;48.388;16.210;2023-02-28T08:02:50;13.20;;;8.20;;
45684;SDS011;46836;48.388;16.210;2023-02-28T08:05:17;17.73;;;9.27;;
45684;SDS011;46836;48.388;16.210;2023-02-28T08:07:48;17.40;;;9.65;;
45684;SDS011;46836;48.388;16.210;2023-02-28T08:10:16;13.95;;;8.38;;
45684;SDS011;46836;48.388;16.210;2023-02-28T08:12:43;16.63;;;8.52;;
45684;SDS011;46836;48.388;16.210;2023-02-28T08:15:10;14.45;;;8.20;;
45684;SDS011;46836;48.388;16.210;2023-02-28T08:17:37;13.35;;;7.82;;
45684;SDS011;46836;48.388;16.210;2023-02-28T08:20:04;17.05;;;9.07;;
45684;SDS011;46836;48.388;16.210;2023-02-28T08:22:32;14.52;;;8.38;;
45684;SDS011;46836;48.388;16.210;2023-02-28T08:24:59;18.30;;;8.98;;
45684;SDS011;46836;48.388;16.210;2023-02-28T08:27:26;13.93;;;8.52;;
45684;SDS011;46836;48.388;16.210;2023-02-28T08:29:53;12.63;;;8.73;;
45684;SDS011;46836;48.388;16.210;2023-02-28T08:32:20;16.48;;;8.60;;
45684;SDS011;46836;48.388;16.210;2023-02-28T08:34:56;14.63;;;8.70;;
45684;SDS011;46836;48.388;16.210;2023-02-28T08:37:23;13.73;;;8.50;;
45684;SDS011;46836;48.388;16.210;2023-02-28T08:39:50;13.02;;;7.85;;
45684;SDS011;46836;48.388;16.210;2023-02-28T08:42:21;16.02;;;8.80;;
45684;SDS011;46836;48.388;16.210;2023-02-28T08:44:48;13.20;;;8.80;;
45684;SDS011;46836;48.388;16.210;2023-02-28T08:47:16;12.32;;;8.93;;
45684;SDS011;46836;48.388;16.210;2023-02-28T08:49:43;11.57;;;7.97;;
45684;SDS011;46836;48.388;16.210;2023-02-28T08:52:10;15.35;;;8.60;;
45684;SDS011;46836;48.388;16.210;2023-02-28T08:54:37;13.65;;;9.20;;
45684;SDS011;46836;48.388;16.210;2023-02-28T08:57:04;13.73;;;9.35;;
45684;SDS011;46836;48.388;16.210;2023-02-28T08:59:31;12.48;;;8.38;;
45684;SDS011;46836;48.388;16.210;2023-02-28T09:01:58;19.60;;;10.52;;
45684;SDS011;46836;48.388;16.210;2023-02-28T09:04:25;17.45;;;9.45;;
45684;SDS011;46836;48.388;16.210;2023-02-28T09:06:53;14.45;;;9.35;;
45684;SDS011;46836;48.388;16.210;2023-02-28T09:09:20;16.10;;;9.90;;
45684;SDS011;46836;48.388;16.210;2023-02-28T09:11:47;14.10;;;8.85;;
45684;SDS011;46836;48.388;16.210;2023-02-28T09:14:14;15.40;;;9.85;;
45684;SDS011;46836;48.388;16.210;2023-02-28T09:16:41;16.83;;;9.38;;
45684;SDS011;46836;48.388;16.210;2023-02-28T09:19:10;16.40;;;9.23;;
45684;SDS011;46836;48.388;16.210;2023-02-28T09:21:38;14.65;;;8.88;;
45684;SDS011;46836;48.388;16.210;2023-02-28T09:24:05;15.23;;;8.85;;
45684;SDS011;46836;48.388;16.210;2023-02-28T09:26:33;16.92;;;10.40;;
45684;SDS011;46836;48.388;16.210;2023-02-28T09:29:16;16.75;;;10.43;;
45684;SDS011;46836;48.388;16.210;2023-02-28T09:31:43;17.52;;;9.90;;
45684;SDS011;46836;48.388;16.210;2023-02-28T09:34:11;16.75;;;9.10;;
45684;SDS011;46836;48.388;16.210;2023-02-28T09:36:39;16.55;;;10.43;;
45684;SDS011;46836;48.388;16.210;2023-02-28T09:39:11;13.05;;;9.00;;
45684;SDS011;46836;48.388;16.210;2023-02-28T09:41:42;18.42;;;9.90;;
45684;SDS011;46836;48.388;16.210;2023-02-28T09:47:01;19.55;;;10.43;;
45684;SDS011;46836;48.388;16.210;2023-02-28T09:49:44;14.65;;;9.68;;
45684;SDS011;46836;48.388;16.210;2023-02-28T09:52:16;16.38;;;10.00;;
45684;SDS011;46836;48.388;16.210;2023-02-28T09:54:50;17.52;;;10.90;;
45684;SDS011;46836;48.388;16.210;2023-02-28T10:05:28;19.63;;;10.20;;
45684;SDS011;46836;48.388;16.210;2023-02-28T10:15:57;19.05;;;10.10;;
45684;SDS011;46836;48.388;16.210;2023-02-28T10:18:47;16.50;;;10.35;;
45684;SDS011;46836;48.388;16.210;2023-02-28T10:21:41;18.42;;;10.10;;
45684;SDS011;46836;48.388;16.210;2023-02-28T10:24:30;12.90;;;8.95;;
45684;SDS011;46836;48.388;16.210;2023-02-28T10:27:05;15.48;;;9.48;;
45684;SDS011;46836;48.388;16.210;2023-02-28T10:29:42;20.15;;;11.32;;
45684;SDS011;46836;48.388;16.210;2023-02-28T10:32:13;19.52;;;10.80;;
45684;SDS011;46836;48.388;16.210;2023-02-28T10:34:43;18.08;;;12.10;;
45684;SDS011;46836;48.388;16.210;2023-02-28T10:37:10;17.80;;;11.73;;
45684;SDS011;46836;48.388;16.210;2023-02-28T10:39:43;16.83;;;11.88;;
45684;SDS011;46836;48.388;16.210;2023-02-28T10:42:28;16.70;;;10.90;;
45684;SDS011;46836;48.388;16.210;2023-02-28T10:47:51;16.33;;;11.13;;
45684;SDS011;46836;48.388;16.210;2023-02-28T10:50:32;14.27;;;10.57;;
45684;SDS011;46836;48.388;16.210;2023-02-28T11:06:51;17.50;;;11.60;;
45684;SDS011;46836;48.388;16.210;2023-02-28T11:09:29;17.02;;;11.57;;
45684;SDS011;46836;48.388;16.210;2023-02-28T11:12:04;15.15;;;10.82;;
45684;SDS011;46836;48.388;16.210;2023-02-28T11:14:35;13.40;;;9.60;;
45684;SDS011;46836;48.388;16.210;2023-02-28T11:17:15;20.58;;;11.43;;
45684;SDS011;46836;48.388;16.210;2023-02-28T11:19:51;16.63;;;9.52;;
45684;SDS011;46836;48.388;16.210;2023-02-28T11:22:23;13.30;;;9.38;;
45684;SDS011;46836;48.388;16.210;2023-02-28T11:24:56;15.95;;;10.18;;
45684;SDS011;46836;48.388;16.210;2023-02-28T11:29:58;16.10;;;10.20;;
45684;SDS011;46836;48.388;16.210;2023-02-28T11:32:27;15.65;;;9.43;;
45684;SDS011;46836;48.388;16.210;2023-02-28T11:37:36;15.65;;;10.10;;
45684;SDS011;46836;48.388;16.210;2023-02-28T11:40:15;14.90;;;9.38;;
45684;SDS011;46836;48.388;16.210;2023-02-28T11:49:02;12.02;;;8.15;;
45684;SDS011;46836;48.388;16.210;2023-02-28T11:51:34;13.80;;;9.25;;
45684;SDS011;46836;48.388;16.210;2023-02-28T11:54:26;15.85;;;10.63;;
45684;SDS011;46836;48.388;16.210;2023-02-28T11:57:27;15.63;;;10.60;;
45684;SDS011;46836;48.388;16.210;2023-02-28T12:03:11;17.13;;;11.73;;
45684;SDS011;46836;48.388;16.210;2023-02-28T12:05:46;18.08;;;13.00;;
45684;SDS011;46836;48.388;16.210;2023-02-28T12:16:58;15.25;;;11.38;;
45684;SDS011;46836;48.388;16.210;2023-02-28T12:22:27;18.70;;;10.98;;
45684;SDS011;46836;48.388;16.210;2023-02-28T12:27:34;12.35;;;9.48;;
45684;SDS011;46836;48.388;16.210;2023-02-28T12:32:49;12.18;;;9.80;;
45684;SDS011;46836;48.388;16.210;2023-02-28T12:35:34;12.40;;;8.77;;
45684;SDS011;46836;48.388;16.210;2023-02-28T12:38:12;14.85;;;9.57;;
45684;SDS011;46836;48.388;16.210;2023-02-28T12:40:50;15.02;;;10.50;;
45684;SDS011;46836;48.388;16.210;2023-02-28T12:43:24;13.13;;;9.93;;
45684;SDS011;46836;48.388;16.210;2023-02-28T12:45:59;17.27;;;11.45;;
45684;SDS011;46836;48.388;16.210;2023-02-28T12:51:48;16.60;;;10.23;;
45684;SDS011;46836;48.388;16.210;2023-02-28T12:54:22;14.95;;;10.85;;
45684;SDS011;46836;48.388;16.210;2023-02-28T13:00:13;15.80;;;10.18;;
45684;SDS011;46836;48.388;16.210;2023-02-28T13:02:49;12.13;;;9.05;;
45684;SDS011;46836;48.388;16.210;2023-02-28T13:05:38;13.52;;;10.15;;
45684;SDS011;46836;48.388;16.210;2023-02-28T13:14:01;17.08;;;10.02;;
45684;SDS011;46836;48.388;16.210;2023-02-28T13:16:47;15.27;;;9.30;;
45684;SDS011;46836;48.388;16.210;2023-02-28T13:19:25;15.70;;;10.40;;
45684;SDS011;46836;48.388;16.210;2023-02-28T13:21:55;13.30;;;9.82;;
45684;SDS011;46836;48.388;16.210;2023-02-28T13:24:42;13.32;;;9.82;;
45684;SDS011;46836;48.388;16.210;2023-02-28T13:29:42;15.27;;;9.80;;
45684;SDS011;46836;48.388;16.210;2023-02-28T13:40:38;17.55;;;10.55;;
45684;SDS011;46836;48.388;16.210;2023-02-28T13:43:07;14.45;;;9.77;;
45684;SDS011;46836;48.388;16.210;2023-02-28T13:45:35;15.95;;;10.27;;
45684;SDS011;46836;48.388;16.210;2023-02-28T13:48:19;13.30;;;10.00;;
45684;SDS011;46836;48.388;16.210;2023-02-28T13:50:55;15.40;;;9.30;;
45684;SDS011;46836;48.388;16.210;2023-02-28T13:53:48;12.48;;;9.50;;
45684;SDS011;46836;48.388;16.210;2023-02-28T13:56:27;17.10;;;10.10;;
45684;SDS011;46836;48.388;16.210;2023-02-28T14:04:54;14.52;;;8.93;;
45684;SDS011;46836;48.388;16.210;2023-02-28T14:07:30;19.27;;;8.82;;
45684;SDS011;46836;48.388;16.210;2023-02-28T14:10:03;16.55;;;9.18;;
45684;SDS011;46836;48.388;16.210;2023-02-28T14:15:26;11.55;;;9.07;;
45684;SDS011;46836;48.388;16.210;2023-02-28T14:17:57;14.32;;;8.68;;
45684;SDS011;46836;48.388;16.210;2023-02-28T14:20:29;12.68;;;9.20;;
45684;SDS011;46836;48.388;16.210;2023-02-28T14:23:07;16.42;;;9.80;;
45684;SDS011;46836;48.388;16.210;2023-02-28T14:31:34;13.07;;;9.35;;
45684;SDS011;46836;48.388;16.210;2023-02-28T14:37:10;17.75;;;10.98;;
45684;SDS011;46836;48.388;16.210;2023-02-28T14:39:43;13.25;;;9.57;;
45684;SDS011;46836;48.388;16.210;2023-02-28T14:42:29;10.88;;;9.13;;
45684;SDS011;46836;48.388;16.210;2023-02-28T14:45:19;11.15;;;8.27;;
45684;SDS011;46836;48.388;16.210;2023-02-28T14:47:48;11.57;;;8.88;;
45684;SDS011;46836;48.388;16.210;2023-02-28T14:50:21;12.65;;;8.70;;
45684;SDS011;46836;48.388;16.210;2023-02-28T14:52:53;12.00;;;8.70;;
45684;SDS011;46836;48.388;16.210;2023-02-28T14:55:24;13.88;;;9.15;;
45684;SDS011;46836;48.388;16.210;2023-02-28T14:57:57;13.05;;;9.98;;
45684;SDS011;46836;48.388;16.210;2023-02-28T15:00:31;17.60;;;8.80;;
45684;SDS011;46836;48.388;16.210;2023-02-28T15:03:13;12.25;;;9.60;;
45684;SDS011;46836;48.388;16.210;2023-02-28T15:05:57;14.48;;;10.43;;
45684;SDS011;46836;48.388;16.210;2023-02-28T15:08:29;15.95;;;10.38;;
45684;SDS011;46836;48.388;16.210;2023-02-28T15:11:02;12.20;;;9.77;;
45684;SDS011;46836;48.388;16.210;2023-02-28T15:13:37;13.23;;;10.75;;
45684;SDS011;46836;48.388;16.210;2023-02-28T15:16:09;14.32;;;9.52;;
45684;SDS011;46836;48.388;16.210;2023-02-28T15:18:50;13.10;;;10.10;;
45684;SDS011;46836;48.388;16.210;2023-02-28T15:21:36;14.82;;;9.38;;
45684;SDS011;46836;48.388;16.210;2023-02-28T15:26:52;13.07;;;9.90;;
45684;SDS011;46836;48.388;16.210;2023-02-28T15:29:23;12.32;;;10.00;;
45684;SDS011;46836;48.388;16.210;2023-02-28T15:32:00;12.95;;;9.38;;
45684;SDS011;46836;48.388;16.210;2023-02-28T15:39:58;13.95;;;10.40;;
45684;SDS011;46836;48.388;16.210;2023-02-28T15:42:32;12.60;;;10.20;;
45684;SDS011;46836;48.388;16.210;2023-02-28T15:44:59;18.40;;;11.57;;
45684;SDS011;46836;48.388;16.210;2023-02-28T15:47:27;14.60;;;10.88;;
45684;SDS011;46836;48.388;16.210;2023-02-28T15:50:04;15.95;;;10.45;;
45684;SDS011;46836;48.388;16.210;2023-02-28T15:52:41;13.75;;;10.57;;
45684;SDS011;46836;48.388;16.210;2023-02-28T15:57:53;14.88;;;10.90;;
45684;SDS011;46836;48.388;16.210;2023-02-28T16:00:26;22.70;;;10.32;;
45684;SDS011;46836;48.388;16.210;2023-02-28T16:03:00;16.17;;;11.18;;
45684;SDS011;46836;48.388;16.210;2023-02-28T16:05:28;15.00;;;10.50;;
45684;SDS011;46836;48.388;16.210;2023-02-28T16:07:59;14.32;;;10.13;;
45684;SDS011;46836;48.388;16.210;2023-02-28T16:10:39;18.85;;;10.50;;
45684;SDS011;46836;48.388;16.210;2023-02-28T16:13:08;13.05;;;10.20;;
45684;SDS011;46836;48.388;16.210;2023-02-28T16:15:43;16.73;;;10.10;;
45684;SDS011;46836;48.388;16.210;2023-02-28T16:18:11;14.98;;;10.38;;
45684;SDS011;46836;48.388;16.210;2023-02-28T16:20:39;14.13;;;9.20;;
45684;SDS011;46836;48.388;16.210;2023-02-28T16:23:06;13.48;;;9.63;;
45684;SDS011;46836;48.388;16.210;2023-02-28T16:25:42;16.05;;;9.43;;
45684;SDS011;46836;48.388;16.210;2023-02-28T16:28:16;16.70;;;9.50;;
45684;SDS011;46836;48.388;16.210;2023-02-28T16:30:47;13.75;;;9.40;;
45684;SDS011;46836;48.388;16.210;2023-02-28T16:33:17;10.07;;;7.78;;
45684;SDS011;46836;48.388;16.210;2023-02-28T16:35:44;9.75;;;8.13;;
45684;SDS011;46836;48.388;16.210;2023-02-28T16:38:12;12.77;;;8.43;;
45684;SDS011;46836;48.388;16.210;2023-02-28T16:40:39;11.20;;;8.38;;
45684;SDS011;46836;48.388;16.210;2023-02-28T16:43:13;12.35;;;8.60;;
45684;SDS011;46836;48.388;16.210;2023-02-28T16:45:44;13.13;;;9.18;;
45684;SDS011;46836;48.388;16.210;2023-02-28T16:48:12;14.57;;;9.25;;
45684;SDS011;46836;48.388;16.210;2023-02-28T16:50:42;27.05;;;8.88;;
45684;SDS011;46836;48.388;16.210;2023-02-28T16:53:11;12.35;;;8.38;;
45684;SDS011;46836;48.388;16.210;2023-02-28T16:55:39;12.35;;;8.48;;
45684;SDS011;46836;48.388;16.210;2023-02-28T16:58:11;10.77;;;8.30;;
45684;SDS011;46836;48.388;16.210;2023-02-28T17:00:41;14.30;;;9.85;;
45684;SDS011;46836;48.388;16.210;2023-02-28T17:03:16;12.25;;;8.30;;
45684;SDS011;46836;48.388;16.210;2023-02-28T17:05:59;12.40;;;8.60;;
45684;SDS011;46836;48.388;16.210;2023-02-28T17:08:27;13.45;;;8.50;;
45684;SDS011;46836;48.388;16.210;2023-02-28T17:10:55;13.40;;;8.60;;
45684;SDS011;46836;48.388;16.210;2023-02-28T17:13:23;12.77;;;8.00;;
45684;SDS011;46836;48.388;16.210;2023-02-28T17:15:51;12.85;;;8.13;;
45684;SDS011;46836;48.388;16.210;2023-02-28T17:18:22;11.35;;;7.88;;
45684;SDS011;46836;48.388;16.210;2023-02-28T17:20:49;14.02;;;8.77;;
45684;SDS011;46836;48.388;16.210;2023-02-28T17:23:16;11.77;;;7.45;;
45684;SDS011;46836;48.388;16.210;2023-02-28T17:25:43;12.40;;;8.25;;